createdAt,value
2023-01-02T00:01:43.112Z,86.86
2023-01-02T00:04:11.358Z,86.54
2023-01-02T00:06:40.345Z,86.41
2023-01-02T00:09:10.604Z,85.51
2023-01-02T00:11:39.506Z,85.49
2023-01-02T00:14:07.780Z,85.20
2023-01-02T00:16:36.345Z,84.97
2023-01-02T00:19:04.740Z,84.64
2023-01-02T00:21:36.350Z,84.49
2023-01-02T00:24:06.017Z,84.67
2023-01-02T00:26:35.955Z,84.00
2023-01-02T00:29:08.575Z,84.37
2023-01-02T00:31:38.446Z,83.73
2023-01-02T00:34:08.829Z,83.49
2023-01-02T00:36:37.255Z,83.19
2023-01-02T00:39:06.723Z,83.61
2023-01-02T00:41:40.717Z,83.55
2023-01-02T00:44:09.359Z,83.87
2023-01-02T00:46:37.953Z,83.86
2023-01-02T00:49:07.061Z,83.39
2023-01-02T00:51:35.700Z,83.50
2023-01-02T00:54:04.362Z,83.91
2023-01-02T00:56:32.933Z,83.77
2023-01-02T00:59:02.708Z,84.07
2023-01-02T01:01:30.985Z,83.74
2023-01-02T01:03:59.568Z,83.37
2023-01-02T01:06:28.121Z,83.29
2023-01-02T01:08:56.333Z,83.38
2023-01-02T01:11:24.609Z,83.34
2023-01-02T01:13:53.873Z,83.44
2023-01-02T01:16:23.484Z,83.53
2023-01-02T01:18:55.272Z,83.52
2023-01-02T01:21:24.157Z,83.05
2023-01-02T01:23:54.260Z,83.44
2023-01-02T01:26:24.146Z,83.45
2023-01-02T01:28:54.281Z,83.38
2023-01-02T01:31:24.948Z,83.53
2023-01-02T01:33:53.553Z,83.37
2023-01-02T01:36:25.045Z,83.07
2023-01-02T01:38:53.443Z,83.21
2023-01-02T01:41:24.403Z,83.47
2023-01-02T01:43:55.994Z,83.11
2023-01-02T01:46:32.044Z,83.66
2023-01-02T01:49:05.275Z,83.51
2023-01-02T01:51:39.283Z,83.61
2023-01-02T01:54:12.109Z,83.40
2023-01-02T01:56:44.751Z,83.71
2023-01-02T01:59:14.324Z,83.33
2023-01-02T02:01:45.035Z,83.66
2023-01-02T02:04:15.683Z,83.98
2023-01-02T02:06:44.251Z,84.22
2023-01-02T02:09:20.042Z,84.17
2023-01-02T02:11:48.959Z,84.09
2023-01-02T02:14:17.464Z,84.53
2023-01-02T02:16:54.782Z,84.50
2023-01-02T02:20:06.097Z,83.05
2023-01-02T02:23:18.345Z,83.93
2023-01-02T02:26:46.633Z,82.23
2023-01-02T02:30:09.836Z,83.39
2023-01-02T02:33:13.025Z,83.11
2023-01-02T02:35:54.353Z,83.16
2023-01-02T02:38:37.349Z,82.75
2023-01-02T02:41:17.238Z,82.63
2023-01-02T02:43:58.095Z,82.39
2023-01-02T02:46:38.130Z,82.66
2023-01-02T02:49:16.025Z,82.08
2023-01-02T02:51:51.625Z,82.10
2023-01-02T02:54:25.697Z,81.87
2023-01-02T02:56:55.215Z,82.04
2023-01-02T02:59:24.460Z,82.26
2023-01-02T03:01:52.755Z,81.81
2023-01-02T03:04:24.151Z,81.89
2023-01-02T03:07:12.169Z,81.65
2023-01-02T03:09:51.718Z,81.93
2023-01-02T03:12:33.128Z,82.07
2023-01-02T03:15:16.360Z,82.69
2023-01-02T03:18:05.417Z,83.02
2023-01-02T03:20:40.739Z,82.87
2023-01-02T03:23:17.208Z,83.12
2023-01-02T03:25:46.394Z,82.65
2023-01-02T03:28:19.968Z,82.86
2023-01-02T03:30:51.462Z,83.25
2023-01-02T03:33:26.238Z,82.98
2023-01-02T03:35:57.891Z,83.24
2023-01-02T03:38:30.124Z,83.51
2023-01-02T03:41:07.738Z,84.29
2023-01-02T03:43:38.268Z,84.35
2023-01-02T03:46:14.843Z,84.90
2023-01-02T03:48:50.195Z,85.49
2023-01-02T03:51:20.282Z,85.78
2023-01-02T03:53:50.096Z,86.19
2023-01-02T03:56:28.193Z,86.58
2023-01-02T03:59:06.838Z,86.80
2023-01-02T04:01:42.153Z,87.27
2023-01-02T04:04:15.747Z,87.57
2023-01-02T04:06:51.841Z,87.54
2023-01-02T04:09:23.284Z,88.05
2023-01-02T04:11:57.282Z,88.23
2023-01-02T04:14:31.868Z,88.61
2023-01-02T04:17:04.430Z,88.79
2023-01-02T04:19:36.790Z,88.96
2023-01-02T04:22:15.549Z,89.26
2023-01-02T04:24:49.794Z,89.44
2023-01-02T04:27:26.532Z,89.84
2023-01-02T04:29:55.661Z,89.81
2023-01-02T04:32:29.997Z,89.87
2023-01-02T04:35:01.687Z,89.90
2023-01-02T04:37:35.000Z,90.15
2023-01-02T04:40:11.795Z,90.44
2023-01-02T04:42:40.433Z,90.41
2023-01-02T04:45:10.275Z,90.58
2023-01-02T04:47:38.562Z,90.67
2023-01-02T04:50:08.418Z,90.73
2023-01-02T04:52:38.306Z,90.95
2023-01-02T04:55:08.254Z,90.75
2023-01-02T04:57:37.045Z,90.77
2023-01-02T05:00:09.073Z,90.86
2023-01-02T05:02:38.021Z,90.61
2023-01-02T05:05:09.052Z,90.69
2023-01-02T05:07:39.532Z,90.64
2023-01-02T05:10:10.047Z,90.84
2023-01-02T05:12:39.929Z,90.98
2023-01-02T05:15:10.355Z,91.11
2023-01-02T05:17:40.268Z,90.89
2023-01-02T05:20:11.467Z,90.77
2023-01-02T05:22:59.466Z,90.26
2023-01-02T05:25:29.085Z,90.25
2023-01-02T05:27:57.632Z,89.92
2023-01-02T05:30:26.988Z,90.17
2023-01-02T05:32:55.593Z,90.30
2023-01-02T05:35:30.187Z,90.16
2023-01-02T05:38:02.709Z,90.56
2023-01-02T05:40:31.241Z,90.48
2023-01-02T05:43:00.100Z,90.58
2023-01-02T05:45:28.444Z,90.89
2023-01-02T05:47:56.816Z,91.07
2023-01-02T05:50:25.328Z,91.21
2023-01-02T05:52:53.838Z,91.36
2023-01-02T05:55:23.462Z,91.22
2023-01-02T05:57:58.539Z,91.17
2023-01-02T06:00:26.823Z,90.86
2023-01-02T06:02:55.478Z,91.03
2023-01-02T06:05:24.081Z,91.23
2023-01-02T06:07:52.315Z,91.22
2023-01-02T06:10:20.909Z,91.46
2023-01-02T06:12:50.722Z,91.11
2023-01-02T06:15:19.245Z,91.54
2023-01-02T06:17:49.454Z,91.31
2023-01-02T06:20:17.963Z,91.70
2023-01-02T06:22:46.525Z,91.65
2023-01-02T06:25:15.155Z,91.47
2023-01-02T06:27:43.684Z,91.69
2023-01-02T06:30:14.065Z,91.43
2023-01-02T06:32:42.779Z,91.43
2023-01-02T06:35:11.326Z,91.30
2023-01-02T06:37:44.991Z,91.38
2023-01-02T06:40:14.004Z,91.15
2023-01-02T06:42:44.542Z,90.72
2023-01-02T06:45:14.551Z,90.81
2023-01-02T06:47:43.062Z,90.83
2023-01-02T06:50:11.667Z,90.57
2023-01-02T06:52:40.829Z,90.68
2023-01-02T06:55:09.585Z,90.58
2023-01-02T06:57:38.079Z,90.51
2023-01-02T07:00:07.760Z,90.33
2023-01-02T07:02:37.384Z,90.57
2023-01-02T07:05:06.647Z,90.41
2023-01-02T07:07:37.538Z,90.40
2023-01-02T07:10:07.104Z,90.34
2023-01-02T07:12:36.436Z,90.05
2023-01-02T07:15:06.635Z,90.21
2023-01-02T07:17:36.661Z,89.84
2023-01-02T07:20:05.952Z,89.79
2023-01-02T07:22:34.210Z,89.68
2023-01-02T07:25:02.699Z,89.43
2023-01-02T07:27:31.321Z,89.44
2023-01-02T07:29:59.662Z,89.12
2023-01-02T07:32:27.981Z,89.38
2023-01-02T07:34:57.556Z,89.01
2023-01-02T07:37:26.139Z,87.85
2023-01-02T07:39:54.629Z,87.33
2023-01-02T07:42:23.184Z,86.55
2023-01-02T07:44:51.707Z,86.22
2023-01-02T07:47:20.264Z,86.00
2023-01-02T07:49:48.761Z,86.44
2023-01-02T07:52:18.339Z,85.05
2023-01-02T07:54:46.853Z,84.78
2023-01-02T07:57:15.379Z,84.32
2023-01-02T07:59:44.978Z,84.18
2023-01-02T08:02:13.558Z,84.37
2023-01-02T08:04:42.114Z,84.15
2023-01-02T08:07:11.410Z,84.12
2023-01-02T08:09:40.984Z,83.93
2023-01-02T08:12:09.344Z,83.68
2023-01-02T08:14:37.709Z,84.22
2023-01-02T08:17:05.974Z,83.92
2023-01-02T08:19:34.563Z,83.85
2023-01-02T08:22:03.350Z,82.83
2023-01-02T08:24:31.860Z,82.90
2023-01-02T08:27:01.522Z,83.10
2023-01-02T08:29:29.802Z,83.04
2023-01-02T08:31:59.441Z,83.19
2023-01-02T08:34:27.941Z,83.01
2023-01-02T08:36:56.274Z,82.51
2023-01-02T08:39:24.758Z,82.48
2023-01-02T08:41:53.357Z,81.45
2023-01-02T08:44:22.925Z,81.74
2023-01-02T08:46:51.293Z,80.87
2023-01-02T08:49:19.954Z,80.13
2023-01-02T08:51:48.322Z,79.44
2023-01-02T08:54:16.865Z,79.10
2023-01-02T08:56:45.059Z,79.25
2023-01-02T08:59:14.037Z,79.50
2023-01-02T09:01:43.823Z,79.79
2023-01-02T09:04:13.521Z,79.65
2023-01-02T09:06:45.114Z,79.70
2023-01-02T09:09:15.735Z,79.61
2023-01-02T09:11:48.902Z,79.90
2023-01-02T09:14:17.742Z,79.30
2023-01-02T09:16:48.046Z,79.50
2023-01-02T09:19:16.288Z,79.30
2023-01-02T09:22:40.596Z,78.90
2023-01-02T09:25:10.405Z,78.70
2023-01-02T09:27:38.590Z,78.37
2023-01-02T09:30:08.266Z,78.08
2023-01-02T09:32:37.157Z,76.40
2023-01-02T09:35:06.701Z,76.25
2023-01-02T09:37:35.263Z,76.06
2023-01-02T09:40:06.720Z,76.00
2023-01-02T09:42:35.247Z,76.45
2023-01-02T09:45:09.164Z,76.15
2023-01-02T09:47:40.576Z,76.67
2023-01-02T09:50:16.483Z,76.61
2023-01-02T09:52:50.510Z,76.01
2023-01-02T09:55:36.763Z,75.68
2023-01-02T09:58:17.053Z,75.12
2023-01-02T10:00:49.035Z,73.51
2023-01-02T10:03:27.900Z,72.88
2023-01-02T10:06:16.215Z,72.97
2023-01-02T10:08:56.905Z,72.24
2023-01-02T10:11:44.608Z,72.56
2023-01-02T10:14:24.010Z,72.62
2023-01-02T10:17:01.675Z,72.12
2023-01-02T10:19:41.503Z,71.62
2023-01-02T10:22:14.537Z,71.42
2023-01-02T10:24:47.801Z,70.98
2023-01-02T10:27:23.335Z,71.61
2023-01-02T10:30:03.622Z,71.77
2023-01-02T10:32:36.199Z,71.88
2023-01-02T10:35:23.035Z,71.41
2023-01-02T10:37:53.213Z,72.36
2023-01-02T10:40:21.791Z,71.99
2023-01-02T10:43:00.089Z,72.40
2023-01-02T10:45:29.330Z,73.23
2023-01-02T10:47:57.575Z,74.65
2023-01-02T10:50:39.495Z,75.90
2023-01-02T10:53:10.661Z,76.84
2023-01-02T10:55:41.914Z,77.28
2023-01-02T10:58:22.319Z,78.05
2023-01-02T11:00:52.366Z,78.70
2023-01-02T11:03:25.290Z,79.38
2023-01-02T11:05:59.372Z,80.20
2023-01-02T11:08:40.507Z,80.70
2023-01-02T11:11:16.282Z,81.15
2023-01-02T11:13:54.514Z,81.41
2023-01-02T11:16:25.695Z,81.38
2023-01-02T11:18:58.372Z,81.61
2023-01-02T11:21:29.896Z,80.71
2023-01-02T11:24:04.461Z,80.48
2023-01-02T11:26:34.174Z,80.37
2023-01-02T11:29:09.560Z,80.83
2023-01-02T11:31:44.123Z,81.18
2023-01-02T11:34:21.640Z,81.41
2023-01-02T11:37:14.403Z,81.43
2023-01-02T11:39:43.685Z,81.34
2023-01-02T11:42:40.311Z,81.58
2023-01-02T11:45:14.722Z,81.89
2023-01-02T11:47:47.906Z,81.97
2023-01-02T11:50:24.020Z,82.27
2023-01-02T11:53:01.387Z,82.29
2023-01-02T11:55:41.267Z,82.81
2023-01-02T11:58:20.277Z,83.44
2023-01-02T12:00:56.363Z,83.43
2023-01-02T12:03:28.036Z,83.78
2023-01-02T12:06:10.744Z,83.83
2023-01-02T12:08:54.497Z,83.75
2023-01-02T12:11:34.295Z,83.84
2023-01-02T12:14:14.636Z,83.56
2023-01-02T12:16:56.965Z,83.25
2023-01-02T12:20:03.352Z,83.11
2023-01-02T12:23:10.590Z,83.09
2023-01-02T12:26:05.592Z,83.19
2023-01-02T12:29:47.227Z,83.66
2023-01-02T12:32:58.430Z,84.73
2023-01-02T12:36:02.646Z,85.54
2023-01-02T12:38:48.535Z,86.39
2023-01-02T12:41:28.699Z,87.23
2023-01-02T12:44:14.274Z,88.22
2023-01-02T12:47:03.123Z,88.88
2023-01-02T12:49:57.248Z,89.69
2023-01-02T12:52:46.162Z,89.88
2023-01-02T12:55:28.770Z,90.14
2023-01-02T12:58:03.682Z,90.26
2023-01-02T13:00:56.153Z,90.59
2023-01-02T13:04:00.493Z,90.73
2023-01-02T13:06:51.640Z,90.84
2023-01-02T13:09:29.240Z,91.02
2023-01-02T13:12:06.020Z,90.90
2023-01-02T13:14:40.983Z,90.74
2023-01-02T13:17:32.236Z,90.75
2023-01-02T13:20:06.337Z,90.64
2023-01-02T13:22:42.595Z,90.55
2023-01-02T13:25:17.407Z,90.56
2023-01-02T13:27:46.633Z,90.20
2023-01-02T13:30:46.576Z,90.28
2023-01-02T13:33:30.332Z,90.44
2023-01-02T13:36:03.665Z,90.31
2023-01-02T13:38:37.685Z,90.31
2023-01-02T13:41:06.352Z,90.49
2023-01-02T13:43:35.448Z,90.79
2023-01-02T13:46:04.289Z,90.80
2023-01-02T13:48:39.089Z,90.68
2023-01-02T13:51:14.006Z,90.45
2023-01-02T13:53:46.798Z,90.87
2023-01-02T13:56:17.072Z,91.00
2023-01-02T13:58:52.992Z,91.30
2023-01-02T14:02:16.684Z,91.26
2023-01-02T14:04:45.389Z,91.13
2023-01-02T14:07:48.769Z,91.26
2023-01-02T14:10:42.462Z,91.02
2023-01-02T14:13:25.659Z,91.17
2023-01-02T14:16:33.705Z,91.77
2023-01-02T14:19:24.415Z,91.72
2023-01-02T14:22:03.483Z,91.39
2023-01-02T14:24:38.239Z,91.43
2023-01-02T14:27:18.217Z,90.98
2023-01-02T14:29:53.261Z,90.81
2023-01-02T14:32:28.791Z,90.67
2023-01-02T14:34:59.437Z,90.32
2023-01-02T14:37:36.400Z,90.08
2023-01-02T14:40:36.281Z,89.43
2023-01-02T14:43:32.339Z,90.16
2023-01-02T14:46:10.100Z,89.30
2023-01-02T14:48:48.959Z,89.20
2023-01-02T14:51:24.169Z,89.08
2023-01-02T14:53:57.765Z,89.16
2023-01-02T14:56:32.572Z,88.37
2023-01-02T14:59:04.221Z,87.88
2023-01-02T15:01:43.863Z,88.11
2023-01-02T15:04:22.720Z,87.95
2023-01-02T15:06:58.639Z,87.69
2023-01-02T15:09:33.594Z,87.56
2023-01-02T15:12:20.702Z,87.64
2023-01-02T15:14:50.631Z,88.18
2023-01-02T15:17:22.536Z,88.44
2023-01-02T15:19:51.330Z,88.35
2023-01-02T15:22:23.721Z,88.69
2023-01-02T15:24:54.880Z,88.26
2023-01-02T15:27:26.202Z,87.85
2023-01-02T15:29:59.712Z,87.49
2023-01-02T15:32:31.940Z,87.50
2023-01-02T15:35:20.872Z,87.54
2023-01-02T15:37:50.604Z,87.23
2023-01-02T15:40:25.462Z,86.90
2023-01-02T15:43:12.458Z,87.17
2023-01-02T15:45:46.662Z,87.47
2023-01-02T15:48:15.602Z,87.64
2023-01-02T15:50:44.414Z,87.66
2023-01-02T15:53:24.365Z,87.76
2023-01-02T15:55:53.121Z,87.77
2023-01-02T15:58:27.842Z,88.39
2023-01-02T16:01:14.878Z,89.82
2023-01-02T16:04:03.351Z,90.60
2023-01-02T16:06:35.147Z,91.79
2023-01-02T16:09:06.385Z,92.45
2023-01-02T16:11:46.656Z,93.06
2023-01-02T16:14:21.913Z,93.68
2023-01-02T16:16:56.988Z,94.15
2023-01-02T16:19:32.546Z,94.47
2023-01-02T16:22:16.668Z,94.87
2023-01-02T16:24:48.135Z,95.19
2023-01-02T16:27:25.083Z,95.56
2023-01-02T16:29:54.535Z,95.40
2023-01-02T16:32:29.154Z,96.02
2023-01-02T16:35:22.505Z,96.19
2023-01-02T16:37:56.383Z,96.41
2023-01-02T16:40:59.752Z,96.72
2023-01-02T16:43:37.976Z,97.17
2023-01-02T16:46:15.220Z,97.52
2023-01-02T16:48:47.055Z,97.92
2023-01-02T16:51:16.709Z,98.14
2023-01-02T16:53:46.457Z,98.31
2023-01-02T16:56:16.060Z,98.48
2023-01-02T16:58:44.587Z,98.71
2023-01-02T17:01:15.129Z,98.91
2023-01-02T17:03:45.521Z,99.12
2023-01-02T17:06:18.167Z,99.03
2023-01-02T17:08:46.950Z,99.27
2023-01-02T17:11:21.453Z,99.51
2023-01-02T17:13:50.271Z,99.65
2023-01-02T17:16:19.584Z,99.73
2023-01-02T17:18:49.332Z,99.73
2023-01-02T17:21:17.584Z,100.00
2023-01-02T17:23:45.841Z,99.99
2023-01-02T17:26:14.214Z,99.99
2023-01-02T17:28:42.762Z,100.00
2023-01-02T17:31:15.454Z,100.00
2023-01-02T17:33:44.250Z,100.00
2023-01-02T17:36:14.860Z,100.00
2023-01-02T17:38:44.250Z,100.00
2023-01-02T17:41:12.808Z,100.00
2023-01-02T17:44:02.684Z,100.00
2023-01-02T17:47:04.499Z,100.00
2023-01-02T17:49:18.489Z,100.00
2023-01-02T17:51:48.139Z,100.00
2023-01-02T17:54:16.709Z,100.00
2023-01-02T17:56:47.247Z,100.00
2023-01-02T17:59:19.168Z,100.00
2023-01-02T18:01:48.351Z,100.00
2023-01-02T18:04:17.281Z,100.00
2023-01-02T18:06:47.172Z,100.00
2023-01-02T18:09:16.683Z,100.00
2023-01-02T18:11:45.298Z,100.00
2023-01-02T18:14:18.760Z,100.00
2023-01-02T18:16:48.234Z,100.00
2023-01-02T18:19:18.986Z,100.00
2023-01-02T18:21:48.883Z,100.00
2023-01-02T18:24:25.000Z,100.00
2023-01-02T18:27:00.648Z,100.00
2023-01-02T18:29:29.232Z,100.00
2023-01-02T18:31:57.789Z,100.00
2023-01-02T18:34:48.107Z,100.00
2023-01-02T18:37:22.404Z,100.00
2023-01-02T18:39:52.001Z,100.00
2023-01-02T18:42:22.915Z,100.00
2023-01-02T18:44:52.763Z,100.00
2023-01-02T18:47:29.654Z,100.00
2023-01-02T18:50:03.320Z,100.00
2023-01-02T18:52:36.926Z,100.00
2023-01-02T18:55:22.672Z,100.00
2023-01-02T18:57:56.631Z,100.00
2023-01-02T19:00:28.541Z,100.00
2023-01-02T19:03:01.533Z,100.00
2023-01-02T19:05:33.276Z,100.00
2023-01-02T19:08:20.550Z,100.00
2023-01-02T19:10:53.091Z,100.00
2023-01-02T19:13:32.307Z,100.00
2023-01-02T19:16:02.110Z,100.00
2023-01-02T19:18:37.810Z,100.00
2023-01-02T19:21:18.531Z,100.00
2023-01-02T19:23:53.873Z,100.00
2023-01-02T19:26:28.244Z,100.00
2023-01-02T19:29:00.644Z,100.00
2023-01-02T19:31:41.063Z,100.00
2023-01-02T19:34:29.180Z,100.00
2023-01-02T19:37:18.541Z,100.00
2023-01-02T19:39:52.005Z,100.00
2023-01-02T19:42:22.208Z,100.00
2023-01-02T19:44:53.746Z,100.00
2023-01-02T19:47:24.830Z,100.00
2023-01-02T19:49:53.711Z,100.00
2023-01-02T19:52:23.664Z,100.00
2023-01-02T19:54:53.598Z,100.00
2023-01-02T19:57:23.506Z,100.00
2023-01-02T19:59:55.496Z,100.00
2023-01-02T20:02:25.511Z,100.00
2023-01-02T20:04:55.444Z,100.00
2023-01-02T20:07:25.142Z,100.00
2023-01-02T20:09:54.847Z,100.00
2023-01-02T20:12:34.572Z,100.00
2023-01-02T20:15:08.843Z,100.00
2023-01-02T20:17:38.779Z,100.00
2023-01-02T20:20:09.853Z,100.00
2023-01-02T20:22:38.164Z,100.00
2023-01-02T20:25:09.026Z,100.00
2023-01-02T20:27:37.762Z,100.00
2023-01-02T20:30:08.596Z,100.00
2023-01-02T20:32:37.341Z,100.00
2023-01-02T20:35:06.741Z,100.00
2023-01-02T20:37:35.060Z,100.00
2023-01-02T20:40:03.663Z,100.00
2023-01-02T20:42:33.827Z,100.00
2023-01-02T20:45:02.655Z,100.00
2023-01-02T20:47:31.262Z,100.00
2023-01-02T20:50:02.355Z,100.00
2023-01-02T20:52:30.910Z,100.00
2023-01-02T20:54:59.776Z,100.00
2023-01-02T20:57:28.335Z,100.00
2023-01-02T20:59:57.960Z,100.00
2023-01-02T21:02:26.773Z,100.00
2023-01-02T21:04:55.896Z,100.00
2023-01-02T21:07:24.634Z,100.00
2023-01-02T21:09:57.462Z,100.00
2023-01-02T21:12:43.564Z,100.00
2023-01-02T21:15:33.868Z,100.00
2023-01-02T21:18:02.666Z,100.00
2023-01-02T21:20:31.237Z,100.00
2023-01-02T21:22:59.500Z,100.00
2023-01-02T21:25:28.261Z,100.00
2023-01-02T21:27:56.946Z,100.00
2023-01-02T21:30:26.567Z,100.00
2023-01-02T21:32:54.913Z,100.00
2023-01-02T21:35:23.745Z,100.00
2023-01-02T21:37:52.821Z,100.00
2023-01-02T21:40:21.432Z,100.00
2023-01-02T21:42:50.032Z,100.00
2023-01-02T21:45:18.974Z,100.00
2023-01-02T21:47:48.862Z,100.00
2023-01-02T21:50:17.375Z,100.00
2023-01-02T21:52:45.956Z,100.00
2023-01-02T21:55:17.455Z,100.00
2023-01-02T21:58:12.519Z,100.00
2023-01-02T22:00:34.911Z,100.00
2023-01-02T22:03:04.986Z,100.00
2023-01-02T22:05:33.643Z,100.00
2023-01-02T22:08:02.213Z,100.00
2023-01-02T22:10:30.829Z,100.00
2023-01-02T22:12:59.359Z,100.00
2023-01-02T22:15:27.920Z,100.00
2023-01-02T22:17:58.788Z,100.00
2023-01-02T22:20:28.403Z,100.00
2023-01-02T22:22:57.128Z,100.00
2023-01-02T22:25:25.713Z,100.00
2023-01-02T22:27:54.282Z,100.00
2023-01-02T22:30:29.343Z,100.00
2023-01-02T22:33:02.097Z,100.00
2023-01-02T22:35:31.796Z,100.00
2023-01-02T22:38:00.112Z,100.00
2023-01-02T22:40:29.397Z,100.00
2023-01-02T22:43:03.418Z,100.00
2023-01-02T22:45:38.099Z,100.00
2023-01-02T22:48:15.587Z,100.00
2023-01-02T22:50:47.036Z,100.00
2023-01-02T22:53:28.404Z,100.00
2023-01-02T22:55:57.095Z,100.00
2023-01-02T22:58:26.189Z,100.00
2023-01-02T23:01:00.339Z,100.00
2023-01-02T23:03:30.374Z,100.00
2023-01-02T23:06:00.031Z,100.00
2023-01-02T23:08:29.010Z,100.00
2023-01-02T23:10:57.642Z,100.00
2023-01-02T23:13:26.194Z,100.00
2023-01-02T23:16:12.561Z,100.00
2023-01-02T23:18:58.829Z,100.00
2023-01-02T23:21:31.215Z,100.00
2023-01-02T23:23:59.975Z,100.00
2023-01-02T23:26:43.464Z,100.00
2023-01-02T23:29:13.002Z,100.00
2023-01-02T23:31:43.498Z,100.00
2023-01-02T23:34:13.787Z,100.00
2023-01-02T23:36:44.273Z,100.00
2023-01-02T23:39:14.890Z,100.00
2023-01-02T23:41:45.482Z,100.00
2023-01-02T23:44:14.431Z,100.00
2023-01-02T23:46:43.618Z,100.00
2023-01-02T23:49:13.347Z,100.00
2023-01-02T23:51:43.280Z,100.00
2023-01-02T23:54:14.698Z,100.00
2023-01-02T23:56:46.387Z,100.00
2023-01-02T23:59:17.927Z,100.00
